Time;durP1;ratioP1;P1;durP2;ratioP2;P2;SDS_P1;SDS_P2;PMS_P1;PMS_P2;Temp;Humidity;BMP_temperature;BMP_pressure;BME280_temperature;BME280_humidity;BME280_pressure;Samples;Min_cycle;Max_cycle;Signal;HPM_P1;HPM_P2
2022/06/19 00:02:10;;;;;;;;;;;25.10;99.90;;;;;;5010144;28;19909;-73
2022/06/19 00:04:36;;;;;;;;;;;25.00;99.90;;;;;;5011096;28;19910;-73
2022/06/19 00:07:02;;;;;;;;;;;25.10;99.90;;;;;;5011487;28;19913;-73
2022/06/19 00:09:27;;;;;;;;;;;25.10;99.90;;;;;;5010932;28;19972;-72
2022/06/19 00:11:55;;;;;;;;;;;25.10;99.90;;;;;;5013711;28;20493;-72
2022/06/19 00:14:20;;;;;;;;;;;25.10;99.90;;;;;;5012756;28;20385;-72
2022/06/19 00:16:46;;;;;;;;;;;25.10;99.90;;;;;;5010790;28;19909;-72
2022/06/19 00:19:12;;;;;;;;;;;25.10;99.90;;;;;;5012412;28;19918;-73
2022/06/19 00:21:37;;;;;;;;;;;25.10;99.90;;;;;;5010912;28;20341;-73
2022/06/19 00:24:03;;;;;;;;;;;25.10;99.90;;;;;;5012390;28;19914;-72
2022/06/19 00:26:29;;;;;;;;;;;25.10;99.90;;;;;;5012046;28;19909;-72
2022/06/19 00:28:56;;;;;;;;;;;25.10;99.90;;;;;;5010449;28;19941;-73
2022/06/19 00:31:21;;;;;;;;;;;25.00;99.90;;;;;;5010398;28;19913;-72
2022/06/19 00:33:47;;;;;;;;;;;25.10;99.90;;;;;;5010503;28;20464;-72
2022/06/19 00:36:12;;;;;;;;;;;25.10;99.90;;;;;;5014641;28;20298;-72
2022/06/19 00:38:38;;;;;;;;;;;25.20;99.90;;;;;;5014230;28;19953;-72
2022/06/19 00:41:04;;;;;;;;;;;25.20;99.90;;;;;;5013793;28;20366;-73
2022/06/19 00:43:29;;;;;;;;;;;25.20;99.90;;;;;;5014556;28;19909;-73
2022/06/19 00:46:01;;;;;;;;;;;25.20;99.90;;;;;;5014678;28;19999;-72
2022/06/19 00:48:30;;;;;;;;;;;25.20;99.90;;;;;;5014203;28;19941;-72
2022/06/19 00:50:59;;;;;;;;;;;25.20;99.90;;;;;;5013662;28;20322;-73
2022/06/19 00:53:42;;;;;;;;;;;25.20;99.90;;;;;;5013502;28;19937;-72
2022/06/19 00:56:10;;;;;;;;;;;25.20;99.90;;;;;;5014329;28;19913;-72
2022/06/19 00:58:38;;;;;;;;;;;25.20;99.90;;;;;;5012491;28;19910;-72
2022/06/19 01:01:20;;;;;;;;;;;25.10;99.90;;;;;;5014188;28;19952;-72
2022/06/19 01:03:46;;;;;;;;;;;25.00;99.90;;;;;;5014257;28;19992;-72
2022/06/19 01:06:11;;;;;;;;;;;24.90;99.90;;;;;;5013656;28;20012;-72
2022/06/19 01:08:37;;;;;;;;;;;24.90;99.90;;;;;;5013448;28;19944;-72
2022/06/19 01:11:03;;;;;;;;;;;24.90;99.90;;;;;;5013903;28;19921;-72
2022/06/19 01:13:30;;;;;;;;;;;24.80;99.90;;;;;;5014124;28;19952;-72
2022/06/19 01:15:56;;;;;;;;;;;24.80;99.90;;;;;;5013795;28;19916;-72
2022/06/19 01:18:21;;;;;;;;;;;24.90;99.90;;;;;;5012502;28;19912;-72
2022/06/19 01:20:49;;;;;;;;;;;24.80;99.90;;;;;;5013076;28;19992;-72
2022/06/19 01:23:20;;;;;;;;;;;24.80;99.90;;;;;;5015183;28;19917;-73
2022/06/19 01:25:48;;;;;;;;;;;24.80;99.90;;;;;;5013872;28;19992;-72
2022/06/19 01:31:06;;;;;;;;;;;24.90;99.90;;;;;;5013264;28;19924;-72
2022/06/19 01:33:52;;;;;;;;;;;24.90;99.90;;;;;;5012155;28;19913;-72
2022/06/19 01:36:19;;;;;;;;;;;25.00;99.90;;;;;;4997568;28;20399;-73
2022/06/19 01:38:48;;;;;;;;;;;25.00;99.90;;;;;;5008835;28;19937;-72
2022/06/19 01:41:16;;;;;;;;;;;25.00;99.90;;;;;;5015026;28;20367;-72
2022/06/19 01:43:42;;;;;;;;;;;25.00;99.90;;;;;;5013750;28;19916;-72
2022/06/19 01:46:08;;;;;;;;;;;25.00;99.90;;;;;;5013638;28;19914;-72
2022/06/19 01:48:34;;;;;;;;;;;25.00;99.90;;;;;;5012829;28;19909;-72
2022/06/19 01:51:01;;;;;;;;;;;25.00;99.90;;;;;;5013002;28;19924;-72
2022/06/19 01:53:39;;;;;;;;;;;25.00;99.90;;;;;;5013125;28;19905;-72
2022/06/19 01:56:05;;;;;;;;;;;24.90;99.90;;;;;;5013132;28;20401;-72
2022/06/19 01:58:32;;;;;;;;;;;24.90;99.90;;;;;;5013419;28;19913;-72
2022/06/19 02:00:58;;;;;;;;;;;24.70;99.90;;;;;;5013283;28;19967;-72
2022/06/19 02:03:30;;;;;;;;;;;24.30;99.90;;;;;;5013625;28;19909;-72
2022/06/19 02:05:56;;;;;;;;;;;24.00;99.90;;;;;;5010740;28;20401;-73
2022/06/19 02:08:22;;;;;;;;;;;24.10;99.90;;;;;;5012316;28;20008;-72
2022/06/19 02:10:48;;;;;;;;;;;24.10;99.90;;;;;;5012712;28;19922;-72
2022/06/19 02:13:16;;;;;;;;;;;24.20;99.90;;;;;;5013046;28;19909;-73
2022/06/19 02:15:43;;;;;;;;;;;24.20;99.90;;;;;;5013297;28;19916;-72
2022/06/19 02:18:11;;;;;;;;;;;24.30;99.90;;;;;;5013376;28;19970;-72
2022/06/19 02:20:37;;;;;;;;;;;24.30;99.90;;;;;;5011969;28;19928;-72
2022/06/19 02:23:05;;;;;;;;;;;24.30;99.90;;;;;;5012588;28;20446;-72
2022/06/19 02:25:32;;;;;;;;;;;24.40;99.90;;;;;;5012816;28;19921;-72
2022/06/19 02:27:58;;;;;;;;;;;24.50;99.90;;;;;;5013223;28;19909;-72
2022/06/19 02:30:23;;;;;;;;;;;24.50;99.90;;;;;;5012935;28;19996;-72
2022/06/19 02:32:50;;;;;;;;;;;24.60;99.90;;;;;;5012167;28;20291;-72
2022/06/19 02:35:18;;;;;;;;;;;24.60;99.90;;;;;;5013366;28;19959;-72
2022/06/19 02:37:46;;;;;;;;;;;24.60;99.90;;;;;;5012433;28;19916;-72
2022/06/19 02:40:31;;;;;;;;;;;24.60;99.90;;;;;;5012473;28;19909;-72
2022/06/19 02:42:57;;;;;;;;;;;24.60;99.90;;;;;;5012677;28;19917;-72
2022/06/19 02:45:24;;;;;;;;;;;24.60;99.90;;;;;;5013573;28;20382;-72
2022/06/19 02:47:51;;;;;;;;;;;24.70;99.90;;;;;;5011811;28;19960;-72
2022/06/19 02:50:18;;;;;;;;;;;24.60;99.90;;;;;;5012451;28;20482;-72
2022/06/19 02:52:44;;;;;;;;;;;24.70;99.90;;;;;;5012749;28;19909;-72
2022/06/19 02:55:10;;;;;;;;;;;24.70;99.90;;;;;;5012654;28;19909;-72
2022/06/19 02:57:36;;;;;;;;;;;24.60;99.90;;;;;;5012603;28;19957;-73
2022/06/19 03:00:04;;;;;;;;;;;24.60;99.90;;;;;;5012791;28;19911;-73
2022/06/19 03:02:31;;;;;;;;;;;24.60;99.90;;;;;;5009836;28;19962;-72
2022/06/19 03:04:58;;;;;;;;;;;24.60;99.90;;;;;;5012574;28;19917;-72
2022/06/19 03:07:26;;;;;;;;;;;24.60;99.90;;;;;;5012642;28;19913;-72
2022/06/19 03:09:52;;;;;;;;;;;24.60;99.90;;;;;;5013013;28;19917;-72
2022/06/19 03:12:18;;;;;;;;;;;24.50;99.90;;;;;;5012711;28;20004;-72
2022/06/19 03:14:47;;;;;;;;;;;24.60;99.90;;;;;;5011677;28;19999;-73
2022/06/19 03:17:16;;;;;;;;;;;24.50;99.90;;;;;;5012679;28;19909;-72
2022/06/19 03:19:42;;;;;;;;;;;24.50;99.90;;;;;;5012732;28;19949;-72
2022/06/19 03:22:08;;;;;;;;;;;24.50;99.90;;;;;;5015047;28;19995;-73
2022/06/19 03:24:33;;;;;;;;;;;24.50;99.90;;;;;;5016195;28;20360;-72
2022/06/19 03:26:59;;;;;;;;;;;24.50;99.90;;;;;;5015535;28;20008;-72
2022/06/19 03:29:25;;;;;;;;;;;24.50;99.90;;;;;;5015505;28;19909;-73
2022/06/19 03:31:50;;;;;;;;;;;24.50;99.90;;;;;;5015409;28;20004;-72
2022/06/19 03:34:16;;;;;;;;;;;24.50;99.90;;;;;;5015456;28;20012;-72
2022/06/19 03:36:42;;;;;;;;;;;24.50;99.90;;;;;;5015824;28;19909;-72
2022/06/19 03:39:07;;;;;;;;;;;24.50;99.90;;;;;;5015302;28;19964;-72
2022/06/19 03:41:33;;;;;;;;;;;24.50;99.90;;;;;;5015209;28;19910;-72
2022/06/19 03:43:58;;;;;;;;;;;24.50;99.90;;;;;;5009983;28;20000;-72
2022/06/19 03:46:24;;;;;;;;;;;24.50;99.90;;;;;;5014986;28;19909;-72
2022/06/19 03:48:51;;;;;;;;;;;24.50;99.90;;;;;;5015161;28;19910;-73
2022/06/19 03:51:17;;;;;;;;;;;24.50;99.90;;;;;;5015437;28;19916;-72
2022/06/19 03:53:45;;;;;;;;;;;24.50;99.90;;;;;;5015152;28;19959;-72
2022/06/19 03:56:15;;;;;;;;;;;24.40;99.90;;;;;;5015422;28;19910;-72
2022/06/19 03:58:47;;;;;;;;;;;24.40;99.90;;;;;;5013860;28;19910;-72
2022/06/19 04:01:15;;;;;;;;;;;24.40;99.90;;;;;;5014772;28;20051;-72
2022/06/19 04:03:41;;;;;;;;;;;24.40;99.90;;;;;;5015315;28;19920;-72
2022/06/19 04:06:07;;;;;;;;;;;24.40;99.90;;;;;;5014979;28;19909;-72
2022/06/19 04:08:33;;;;;;;;;;;24.40;99.90;;;;;;5014239;28;20282;-72
2022/06/19 04:10:58;;;;;;;;;;;24.40;99.90;;;;;;5015351;28;19913;-73
2022/06/19 04:13:24;;;;;;;;;;;24.40;99.90;;;;;;5015077;28;19967;-73
2022/06/19 04:15:49;;;;;;;;;;;24.40;99.90;;;;;;5014698;28;19910;-72
2022/06/19 04:18:15;;;;;;;;;;;24.40;99.90;;;;;;5014906;28;19924;-72
2022/06/19 04:20:40;;;;;;;;;;;24.40;99.90;;;;;;5014112;28;20004;-72
2022/06/19 04:23:09;;;;;;;;;;;24.40;99.90;;;;;;5012419;28;19921;-72
2022/06/19 04:25:35;;;;;;;;;;;24.30;99.90;;;;;;5009095;28;19910;-72
2022/06/19 04:28:00;;;;;;;;;;;24.30;99.90;;;;;;5014974;28;19932;-72
2022/06/19 04:30:26;;;;;;;;;;;24.40;99.90;;;;;;5014333;28;19917;-72
2022/06/19 04:32:52;;;;;;;;;;;24.50;99.90;;;;;;5013874;28;19979;-72
2022/06/19 04:35:17;;;;;;;;;;;24.50;99.90;;;;;;5015008;28;20317;-72
2022/06/19 04:37:43;;;;;;;;;;;24.50;99.90;;;;;;5014147;28;20389;-72
2022/06/19 04:40:09;;;;;;;;;;;24.50;99.90;;;;;;5008700;28;20421;-72
2022/06/19 04:42:35;;;;;;;;;;;24.50;99.90;;;;;;5015034;28;19931;-72
2022/06/19 04:45:00;;;;;;;;;;;24.40;99.90;;;;;;5013923;28;20355;-72
2022/06/19 04:47:26;;;;;;;;;;;24.40;99.90;;;;;;5012724;28;20287;-71
2022/06/19 04:49:51;;;;;;;;;;;24.40;99.90;;;;;;5014394;28;19963;-73
2022/06/19 04:52:17;;;;;;;;;;;24.50;99.90;;;;;;5014149;28;19964;-72
2022/06/19 04:54:44;;;;;;;;;;;24.40;99.90;;;;;;5014780;28;19916;-72
2022/06/19 04:57:10;;;;;;;;;;;24.50;99.90;;;;;;5013450;28;19924;-72
2022/06/19 04:59:35;;;;;;;;;;;24.40;99.90;;;;;;5013456;28;19905;-72
2022/06/19 05:02:01;;;;;;;;;;;24.40;99.90;;;;;;5014547;28;19909;-72
2022/06/19 05:04:26;;;;;;;;;;;24.50;99.90;;;;;;5013858;28;19991;-72
2022/06/19 05:06:52;;;;;;;;;;;24.50;99.90;;;;;;5014020;28;19913;-73
2022/06/19 05:09:18;;;;;;;;;;;24.50;99.90;;;;;;5014186;28;20358;-72
2022/06/19 05:11:43;;;;;;;;;;;24.60;99.90;;;;;;5013406;28;20400;-72
2022/06/19 05:14:09;;;;;;;;;;;24.60;99.90;;;;;;5013639;28;19909;-72
2022/06/19 05:16:35;;;;;;;;;;;24.60;99.90;;;;;;5013992;28;20263;-73
2022/06/19 05:19:03;;;;;;;;;;;24.70;99.90;;;;;;5013237;28;20426;-73
2022/06/19 05:21:28;;;;;;;;;;;24.70;99.90;;;;;;5014068;28;20374;-73
2022/06/19 05:23:54;;;;;;;;;;;24.60;99.90;;;;;;5013084;28;19909;-72
2022/06/19 05:26:22;;;;;;;;;;;24.70;99.90;;;;;;5013563;28;20302;-72
2022/06/19 05:28:48;;;;;;;;;;;24.70;99.90;;;;;;5013443;28;20309;-72
2022/06/19 05:31:14;;;;;;;;;;;24.70;99.90;;;;;;5013569;28;19925;-73
2022/06/19 05:33:39;;;;;;;;;;;24.70;99.90;;;;;;5013756;28;20330;-73
2022/06/19 05:36:05;;;;;;;;;;;24.80;99.90;;;;;;5013746;28;19947;-72
2022/06/19 05:38:31;;;;;;;;;;;24.90;99.90;;;;;;5027929;28;20377;-73
2022/06/19 05:40:57;;;;;;;;;;;24.80;99.90;;;;;;5013882;28;19909;-72
2022/06/19 05:43:23;;;;;;;;;;;24.90;99.90;;;;;;5012930;28;20055;-72
2022/06/19 05:45:53;;;;;;;;;;;24.90;99.90;;;;;;5013860;28;19945;-73
2022/06/19 05:48:18;;;;;;;;;;;24.90;99.90;;;;;;4997588;28;19909;-72
2022/06/19 05:50:44;;;;;;;;;;;24.90;99.90;;;;;;5012168;28;20386;-73
2022/06/19 05:53:10;;;;;;;;;;;24.90;99.90;;;;;;5012941;28;19987;-73
2022/06/19 05:55:35;;;;;;;;;;;24.90;99.90;;;;;;5013199;28;19957;-71
2022/06/19 05:58:01;;;;;;;;;;;24.90;99.90;;;;;;5012483;28;19915;-72
2022/06/19 06:00:27;;;;;;;;;;;24.90;99.90;;;;;;5013792;28;19909;-72
2022/06/19 06:02:52;;;;;;;;;;;25.00;99.90;;;;;;5012530;28;19913;-72
2022/06/19 06:05:18;;;;;;;;;;;25.00;99.90;;;;;;5013331;28;20378;-72
2022/06/19 06:07:43;;;;;;;;;;;24.90;99.90;;;;;;5013161;28;19932;-72
2022/06/19 06:10:10;;;;;;;;;;;24.80;99.90;;;;;;5013113;28;19920;-73
2022/06/19 06:12:36;;;;;;;;;;;25.00;99.90;;;;;;5013038;28;20322;-73
2022/06/19 06:15:02;;;;;;;;;;;25.00;99.90;;;;;;5012759;28;19909;-71
2022/06/19 06:17:27;;;;;;;;;;;25.10;99.90;;;;;;5012777;28;19909;-72
2022/06/19 06:19:53;;;;;;;;;;;25.20;99.90;;;;;;5013498;28;20294;-71
2022/06/19 06:22:18;;;;;;;;;;;25.30;99.90;;;;;;5013291;28;19925;-71
2022/06/19 06:24:44;;;;;;;;;;;25.20;99.90;;;;;;5013168;28;19968;-71
2022/06/19 06:27:10;;;;;;;;;;;25.10;99.90;;;;;;5012605;28;19917;-70
2022/06/19 06:29:35;;;;;;;;;;;25.20;99.90;;;;;;5011686;28;19952;-71
2022/06/19 06:32:01;;;;;;;;;;;25.20;99.90;;;;;;5012702;28;20386;-72
2022/06/19 06:34:26;;;;;;;;;;;25.10;99.90;;;;;;5012762;28;20359;-71
2022/06/19 06:36:52;;;;;;;;;;;25.20;99.90;;;;;;5013199;28;19978;-71
2022/06/19 06:39:17;;;;;;;;;;;25.20;99.90;;;;;;5000842;28;20281;-70
2022/06/19 06:41:43;;;;;;;;;;;25.20;99.90;;;;;;5011879;28;19913;-71
2022/06/19 06:44:13;;;;;;;;;;;25.30;99.90;;;;;;5002973;28;19941;-70
2022/06/19 06:46:38;;;;;;;;;;;25.30;99.90;;;;;;5007882;28;19914;-70
2022/06/19 06:49:04;;;;;;;;;;;25.30;99.90;;;;;;5012762;28;19905;-71
2022/06/19 06:51:30;;;;;;;;;;;25.30;99.90;;;;;;5012934;28;19921;-71
2022/06/19 06:53:56;;;;;;;;;;;25.30;99.90;;;;;;5011655;28;19905;-70
2022/06/19 06:56:22;;;;;;;;;;;25.30;99.90;;;;;;5014911;28;20287;-71
2022/06/19 06:58:47;;;;;;;;;;;25.40;99.90;;;;;;5016640;28;20299;-70
2022/06/19 07:01:15;;;;;;;;;;;25.40;99.90;;;;;;5016341;28;19913;-70
2022/06/19 07:03:41;;;;;;;;;;;25.40;99.90;;;;;;5016537;28;20055;-69
2022/06/19 07:06:07;;;;;;;;;;;25.40;99.90;;;;;;5015199;28;19913;-69
2022/06/19 07:08:32;;;;;;;;;;;25.40;99.90;;;;;;5015277;28;19905;-69
2022/06/19 07:10:58;;;;;;;;;;;25.50;99.90;;;;;;5016306;28;19921;-69
2022/06/19 07:13:23;;;;;;;;;;;25.70;99.90;;;;;;5016631;28;19910;-69
2022/06/19 07:15:50;;;;;;;;;;;25.70;99.90;;;;;;5016221;28;19917;-69
2022/06/19 07:18:16;;;;;;;;;;;25.80;99.90;;;;;;5016246;28;19947;-70
2022/06/19 07:20:41;;;;;;;;;;;25.70;99.90;;;;;;5015743;28;19948;-70
2022/06/19 07:23:07;;;;;;;;;;;25.80;99.90;;;;;;5010045;28;19918;-72
2022/06/19 07:25:32;;;;;;;;;;;25.80;99.90;;;;;;5016429;28;20044;-73
2022/06/19 07:27:59;;;;;;;;;;;25.90;99.90;;;;;;5016138;28;20263;-70
2022/06/19 07:30:26;;;;;;;;;;;26.00;99.90;;;;;;5016177;28;19926;-70
2022/06/19 07:32:52;;;;;;;;;;;26.00;99.90;;;;;;5014402;28;19910;-70
2022/06/19 07:35:17;;;;;;;;;;;26.10;99.90;;;;;;5015987;28;20009;-70
2022/06/19 07:37:43;;;;;;;;;;;26.20;99.90;;;;;;5015780;28;19945;-74
2022/06/19 07:40:10;;;;;;;;;;;26.20;99.90;;;;;;5015690;28;19909;-71
2022/06/19 07:42:36;;;;;;;;;;;26.10;99.90;;;;;;5015693;28;19985;-71
2022/06/19 07:45:01;;;;;;;;;;;26.20;99.90;;;;;;5015402;28;20020;-72
2022/06/19 07:50:12;;;;;;;;;;;26.30;99.90;;;;;;5015483;28;20377;-76
2022/06/19 07:52:39;;;;;;;;;;;26.40;99.90;;;;;;5015396;28;19953;-76
2022/06/19 07:55:06;;;;;;;;;;;26.40;99.90;;;;;;5015689;28;19914;-75
2022/06/19 07:57:31;;;;;;;;;;;26.40;99.90;;;;;;5015734;28;20290;-74
2022/06/19 07:59:57;;;;;;;;;;;26.40;99.90;;;;;;5014544;28;19905;-75
2022/06/19 08:02:24;;;;;;;;;;;26.50;99.90;;;;;;5015371;28;19909;-75
2022/06/19 08:04:50;;;;;;;;;;;26.60;99.90;;;;;;5014520;28;19910;-75
2022/06/19 08:07:16;;;;;;;;;;;26.60;99.90;;;;;;5013906;28;19909;-78
2022/06/19 08:09:42;;;;;;;;;;;26.70;99.90;;;;;;5013646;28;19928;-78
2022/06/19 08:12:08;;;;;;;;;;;26.70;99.90;;;;;;5008446;28;19909;-78
2022/06/19 08:14:34;;;;;;;;;;;26.70;99.90;;;;;;5021595;28;20298;-78
2022/06/19 08:16:59;;;;;;;;;;;26.70;99.90;;;;;;5009223;28;19921;-77
2022/06/19 08:19:25;;;;;;;;;;;26.70;99.90;;;;;;5008036;28;19925;-78
2022/06/19 08:21:51;;;;;;;;;;;26.70;99.90;;;;;;5007476;28;19926;-77
2022/06/19 08:24:17;;;;;;;;;;;26.80;99.90;;;;;;5008145;28;19921;-76
2022/06/19 08:26:43;;;;;;;;;;;26.80;99.90;;;;;;5010633;28;20274;-78
2022/06/19 08:29:08;;;;;;;;;;;26.90;99.90;;;;;;5005390;28;19924;-80
2022/06/19 08:31:34;;;;;;;;;;;26.90;99.90;;;;;;5007363;28;19921;-74
2022/06/19 08:33:59;;;;;;;;;;;26.90;99.90;;;;;;5007919;28;20003;-79
2022/06/19 08:36:26;;;;;;;;;;;26.90;99.90;;;;;;5008247;28;19918;-80
2022/06/19 08:38:54;;;;;;;;;;;26.90;99.90;;;;;;5010363;28;19928;-80
2022/06/19 08:41:39;;;;;;;;;;;27.00;99.90;;;;;;5008549;28;19913;-80
2022/06/19 08:44:14;;;;;;;;;;;27.00;99.90;;;;;;5006828;28;20366;-81
2022/06/19 08:46:42;;;;;;;;;;;27.10;99.90;;;;;;5006651;28;20392;-76
2022/06/19 08:49:29;;;;;;;;;;;27.10;99.90;;;;;;5004735;28;19935;-77
2022/06/19 08:52:04;;;;;;;;;;;27.20;99.90;;;;;;4998337;28;20309;-75
2022/06/19 08:54:32;;;;;;;;;;;27.20;99.90;;;;;;5006827;28;19910;-77
2022/06/19 08:57:01;;;;;;;;;;;27.30;99.90;;;;;;5009835;28;19905;-77
2022/06/19 08:59:35;;;;;;;;;;;27.30;99.90;;;;;;5008255;28;19905;-77
2022/06/19 09:02:01;;;;;;;;;;;27.30;99.90;;;;;;5005377;28;19920;-77
2022/06/19 09:07:46;;;;;;;;;;;27.40;99.90;;;;;;4967906;28;19961;-77
2022/06/19 09:10:22;;;;;;;;;;;27.60;99.90;;;;;;4971332;28;20410;-80
2022/06/19 09:13:02;;;;;;;;;;;27.60;99.90;;;;;;4960343;28;20346;-81
2022/06/19 09:15:32;;;;;;;;;;;27.40;99.90;;;;;;4971160;28;19914;-78
2022/06/19 09:18:05;;;;;;;;;;;27.40;99.90;;;;;;4970718;28;20442;-74
2022/06/19 09:20:40;;;;;;;;;;;27.40;99.90;;;;;;4969537;28;20522;-79
2022/06/19 09:23:05;;;;;;;;;;;27.50;99.90;;;;;;4970954;28;19925;-81
2022/06/19 09:25:37;;;;;;;;;;;27.40;99.90;;;;;;4971094;28;20331;-82
2022/06/19 09:28:20;;;;;;;;;;;27.50;99.90;;;;;;4971060;28;19973;-81
2022/06/19 09:30:48;;;;;;;;;;;27.60;99.90;;;;;;4971175;28;20370;-75
2022/06/19 09:33:13;;;;;;;;;;;27.50;99.90;;;;;;4971078;28;19922;-76
2022/06/19 09:35:42;;;;;;;;;;;27.70;99.70;;;;;;4971553;28;20444;-80
2022/06/19 09:38:22;;;;;;;;;;;27.70;99.30;;;;;;4970511;28;19936;-80
2022/06/19 09:40:54;;;;;;;;;;;27.80;99.40;;;;;;4970554;28;19960;-81
2022/06/19 09:43:24;;;;;;;;;;;27.80;99.30;;;;;;4983884;28;19909;-80
2022/06/19 09:45:57;;;;;;;;;;;27.90;98.40;;;;;;5013567;28;19940;-83
2022/06/19 09:48:27;;;;;;;;;;;28.00;97.70;;;;;;5010105;28;20275;-80
2022/06/19 09:51:00;;;;;;;;;;;28.10;97.30;;;;;;5010978;28;19917;-81
2022/06/19 09:53:34;;;;;;;;;;;28.00;96.10;;;;;;5021295;28;19975;-83
2022/06/19 09:56:04;;;;;;;;;;;28.10;95.20;;;;;;5016505;28;19917;-81
2022/06/19 09:58:35;;;;;;;;;;;28.00;93.90;;;;;;5012034;28;19920;-81
2022/06/19 10:01:02;;;;;;;;;;;28.20;92.70;;;;;;5010185;28;19991;-81
2022/06/19 10:04:00;;;;;;;;;;;28.20;90.90;;;;;;5007458;28;19960;-81
2022/06/19 10:06:26;;;;;;;;;;;28.20;89.50;;;;;;4964854;28;19918;-81
2022/06/19 10:08:53;;;;;;;;;;;28.40;88.60;;;;;;4971029;28;19997;-81
2022/06/19 10:11:21;;;;;;;;;;;28.20;87.20;;;;;;4971622;28;20390;-81
2022/06/19 10:13:52;;;;;;;;;;;28.30;85.80;;;;;;4972014;28;19957;-82
2022/06/19 10:16:26;;;;;;;;;;;28.30;86.20;;;;;;4973521;28;19957;-82
2022/06/19 10:18:54;;;;;;;;;;;28.40;85.30;;;;;;4971399;28;19965;-81
2022/06/19 10:24:23;;;;;;;;;;;28.30;85.60;;;;;;4970594;28;21509;-81
2022/06/19 10:27:02;;;;;;;;;;;28.50;85.80;;;;;;4965597;28;19918;-80
2022/06/19 10:29:38;;;;;;;;;;;28.50;82.50;;;;;;4971923;28;19910;-80
2022/06/19 10:32:12;;;;;;;;;;;28.50;80.90;;;;;;4974734;28;19937;-78
2022/06/19 10:34:44;;;;;;;;;;;28.60;80.70;;;;;;4989973;28;19910;-75
2022/06/19 10:37:31;;;;;;;;;;;28.60;78.70;;;;;;4976183;28;20049;-75
2022/06/19 10:39:59;;;;;;;;;;;28.70;78.00;;;;;;4977335;28;19997;-75
2022/06/19 10:42:31;;;;;;;;;;;28.90;76.60;;;;;;5002092;28;20151;-75
2022/06/19 10:45:09;;;;;;;;;;;28.70;75.80;;;;;;5015767;28;19912;-75
2022/06/19 10:47:41;;;;;;;;;;;28.60;77.50;;;;;;5014113;28;19996;-75
2022/06/19 10:50:23;;;;;;;;;;;28.90;75.90;;;;;;5016890;28;19989;-74
2022/06/19 10:53:03;;;;;;;;;;;28.80;73.80;;;;;;5016115;28;19913;-74
2022/06/19 10:55:41;;;;;;;;;;;28.90;71.50;;;;;;5016634;28;19920;-75
2022/06/19 10:58:17;;;;;;;;;;;28.90;71.70;;;;;;5016684;28;19916;-75
2022/06/19 11:00:44;;;;;;;;;;;28.90;71.70;;;;;;5016442;28;19916;-75
2022/06/19 11:06:18;;;;;;;;;;;29.10;72.40;;;;;;5015362;28;19917;-75
2022/06/19 11:09:00;;;;;;;;;;;29.10;73.40;;;;;;5015564;28;20330;-74
2022/06/19 11:11:27;;;;;;;;;;;29.20;72.50;;;;;;5016923;28;19960;-75
2022/06/19 11:13:57;;;;;;;;;;;29.10;72.20;;;;;;5016614;28;19955;-75
2022/06/19 11:16:23;;;;;;;;;;;29.10;69.40;;;;;;5010619;28;19909;-75
2022/06/19 11:18:49;;;;;;;;;;;29.20;67.80;;;;;;5016199;28;20396;-75
2022/06/19 11:21:20;;;;;;;;;;;29.20;67.90;;;;;;5016272;28;20370;-75
2022/06/19 11:23:49;;;;;;;;;;;29.20;69.30;;;;;;5030984;28;20338;-75
2022/06/19 11:26:16;;;;;;;;;;;29.20;68.30;;;;;;5015810;28;20371;-75
2022/06/19 11:28:48;;;;;;;;;;;29.10;68.30;;;;;;5016597;28;19917;-74
2022/06/19 11:31:18;;;;;;;;;;;29.30;68.90;;;;;;5015770;28;20302;-75
2022/06/19 11:33:44;;;;;;;;;;;29.20;69.20;;;;;;5016173;28;19909;-75
2022/06/19 11:36:24;;;;;;;;;;;29.30;69.90;;;;;;5016173;28;19912;-75
2022/06/19 11:38:52;;;;;;;;;;;29.30;68.90;;;;;;5011532;28;20282;-75
2022/06/19 11:41:21;;;;;;;;;;;29.60;69.10;;;;;;5015419;28;19917;-75
2022/06/19 11:44:07;;;;;;;;;;;29.60;68.10;;;;;;5017046;28;19917;-75
2022/06/19 11:46:42;;;;;;;;;;;29.60;67.20;;;;;;5015540;28;19909;-75
2022/06/19 11:49:18;;;;;;;;;;;29.50;66.30;;;;;;5015795;28;19916;-74
2022/06/19 11:51:45;;;;;;;;;;;29.70;66.70;;;;;;5015735;28;19947;-75
2022/06/19 11:54:13;;;;;;;;;;;29.60;66.00;;;;;;5015844;28;20000;-75
2022/06/19 11:56:39;;;;;;;;;;;29.50;66.60;;;;;;5015270;28;19909;-75
2022/06/19 11:59:06;;;;;;;;;;;29.50;66.70;;;;;;5015345;28;19916;-75
2022/06/19 12:01:39;;;;;;;;;;;29.60;66.10;;;;;;5015345;28;19980;-75
2022/06/19 12:04:06;;;;;;;;;;;29.50;67.20;;;;;;5009284;28;19917;-75
2022/06/19 12:06:38;;;;;;;;;;;29.60;67.70;;;;;;5015381;28;19916;-75
2022/06/19 12:09:05;;;;;;;;;;;29.80;66.60;;;;;;5014931;28;19913;-75
2022/06/19 12:11:37;;;;;;;;;;;29.80;67.00;;;;;;5016912;28;19921;-74
2022/06/19 12:14:04;;;;;;;;;;;29.90;67.00;;;;;;5014846;28;19906;-75
2022/06/19 12:16:29;;;;;;;;;;;29.70;67.30;;;;;;5009561;28;20386;-75
2022/06/19 12:18:55;;;;;;;;;;;29.60;67.90;;;;;;5013848;28;19909;-75
2022/06/19 12:21:20;;;;;;;;;;;29.70;67.90;;;;;;4999292;28;19909;-74
2022/06/19 12:24:09;;;;;;;;;;;29.60;68.90;;;;;;5014464;28;20048;-75
2022/06/19 12:26:39;;;;;;;;;;;29.70;67.50;;;;;;5012574;28;20021;-75
2022/06/19 12:29:11;;;;;;;;;;;29.80;69.60;;;;;;5014675;28;19916;-75
2022/06/19 12:31:37;;;;;;;;;;;30.00;68.10;;;;;;5014647;28;19917;-75
2022/06/19 12:34:06;;;;;;;;;;;29.80;67.50;;;;;;5015642;28;19916;-74
2022/06/19 12:36:35;;;;;;;;;;;29.60;68.50;;;;;;5014667;28;19909;-75
2022/06/19 12:39:02;;;;;;;;;;;29.60;68.80;;;;;;5014485;28;20301;-75
2022/06/19 12:41:57;;;;;;;;;;;29.80;67.90;;;;;;5014215;28;19913;-75
2022/06/19 12:44:22;;;;;;;;;;;30.00;68.60;;;;;;5008704;28;19909;-75
2022/06/19 12:46:51;;;;;;;;;;;29.80;69.30;;;;;;5014732;28;19910;-75
2022/06/19 12:49:35;;;;;;;;;;;29.70;70.20;;;;;;5014861;28;20290;-75
2022/06/19 12:52:09;;;;;;;;;;;29.70;69.30;;;;;;5014465;28;19921;-75
2022/06/19 12:54:50;;;;;;;;;;;29.80;70.80;;;;;;5014471;28;20267;-74
2022/06/19 12:57:21;;;;;;;;;;;29.80;72.00;;;;;;5013495;28;19971;-75
2022/06/19 12:59:47;;;;;;;;;;;29.80;72.10;;;;;;5013708;28;19909;-75
2022/06/19 13:02:22;;;;;;;;;;;29.60;72.00;;;;;;5014786;28;19909;-75
2022/06/19 13:04:48;;;;;;;;;;;29.70;70.80;;;;;;5014145;28;19916;-75
2022/06/19 13:07:30;;;;;;;;;;;29.80;72.00;;;;;;5014112;28;20418;-75
2022/06/19 13:09:56;;;;;;;;;;;30.00;70.20;;;;;;5014127;28;19917;-75
2022/06/19 13:12:47;;;;;;;;;;;30.00;70.30;;;;;;5014046;28;19919;-75
2022/06/19 13:15:25;;;;;;;;;;;29.80;72.10;;;;;;5013366;28;19924;-75
2022/06/19 13:17:57;;;;;;;;;;;29.90;72.60;;;;;;5009429;28;19905;-75
2022/06/19 13:20:33;;;;;;;;;;;29.90;71.40;;;;;;5013822;28;19971;-74
2022/06/19 13:23:16;;;;;;;;;;;29.90;70.90;;;;;;5013852;28;19921;-75
2022/06/19 13:25:56;;;;;;;;;;;29.80;71.40;;;;;;5013308;28;19920;-75
2022/06/19 13:28:28;;;;;;;;;;;29.80;72.30;;;;;;5014173;28;19913;-75
2022/06/19 13:30:57;;;;;;;;;;;30.00;71.80;;;;;;5014047;28;19947;-75
2022/06/19 13:33:32;;;;;;;;;;;29.90;70.60;;;;;;4998545;28;19995;-75
2022/06/19 13:36:08;;;;;;;;;;;30.00;70.00;;;;;;5009833;28;20389;-75
2022/06/19 13:38:43;;;;;;;;;;;29.80;72.40;;;;;;5011328;28;19937;-75
2022/06/19 13:41:24;;;;;;;;;;;30.00;71.50;;;;;;5013100;28;19917;-75
2022/06/19 13:43:52;;;;;;;;;;;30.00;70.70;;;;;;5013584;28;20326;-75
2022/06/19 13:46:25;;;;;;;;;;;30.00;70.40;;;;;;5013275;28;19916;-74
2022/06/19 13:48:53;;;;;;;;;;;30.00;70.40;;;;;;5013652;28;19917;-75
2022/06/19 13:51:23;;;;;;;;;;;30.00;68.30;;;;;;5013484;28;19917;-75
2022/06/19 13:53:57;;;;;;;;;;;29.90;69.80;;;;;;5012829;28;20358;-75
2022/06/19 13:56:41;;;;;;;;;;;30.10;68.60;;;;;;5013453;28;19920;-75
2022/06/19 13:59:25;;;;;;;;;;;30.00;68.00;;;;;;5013750;28;19920;-75
2022/06/19 14:01:50;;;;;;;;;;;29.90;69.00;;;;;;5013359;28;19913;-75
2022/06/19 14:07:22;;;;;;;;;;;30.10;69.10;;;;;;5013262;28;19917;-75
2022/06/19 14:09:48;;;;;;;;;;;30.00;70.40;;;;;;5012977;28;19979;-75
2022/06/19 14:12:17;;;;;;;;;;;30.20;67.90;;;;;;5013646;28;19917;-76
2022/06/19 14:14:44;;;;;;;;;;;30.10;73.00;;;;;;5012381;28;20405;-75
2022/06/19 14:17:28;;;;;;;;;;;30.10;72.00;;;;;;5012739;28;20075;-75
2022/06/19 14:20:12;;;;;;;;;;;30.30;70.80;;;;;;5013252;28;20270;-75
2022/06/19 14:22:37;;;;;;;;;;;30.20;73.00;;;;;;5013038;28;20020;-75
2022/06/19 14:25:12;;;;;;;;;;;30.10;72.50;;;;;;5013450;28;20505;-74
2022/06/19 14:27:43;;;;;;;;;;;30.10;72.00;;;;;;5013362;28;20546;-75
2022/06/19 14:30:10;;;;;;;;;;;30.00;70.40;;;;;;5013077;28;20386;-75
2022/06/19 14:32:45;;;;;;;;;;;30.10;71.60;;;;;;5011844;28;19913;-75
2022/06/19 14:35:18;;;;;;;;;;;30.00;71.40;;;;;;5013224;28;19910;-75
2022/06/19 14:37:43;;;;;;;;;;;29.90;71.70;;;;;;5013303;28;19913;-74
2022/06/19 14:40:21;;;;;;;;;;;29.90;69.00;;;;;;5012763;28;19910;-75
2022/06/19 14:42:52;;;;;;;;;;;30.00;72.10;;;;;;5013059;28;20439;-76
2022/06/19 14:45:20;;;;;;;;;;;30.00;72.10;;;;;;5012833;28;20326;-74